River Rouge, Michigan
Current Conditions -  °F | °C
As of 10:00 PM on Friday 24 Oct 2014 (Local Time) from CYQG Reporting Station
Broken Clouds Broken Clouds  
Wind Chill: 55°   Ceiling: 4100
Heat Index: 55°   Visibility: 15mi
Dew Point: 46°   Wind: 7mph
Humidity: 72%   Direction: 230°SW
Pressure: 29.97"   Gusts: NA
Location:  42.27°N, 83.13°W
Report Text: CYQG 250200Z 23006KT 15SM BKN041 13/08 A2997 RMK SC7 SLP152
Loading
Personal Weather Stations






























Interactive Weather Map
Tropical Storm Tracking
New forecast layout! Learn more

10-Day Weather Forecast

Advertisements
Track Severe Weather on mobile